If you wish to contribute or participate in the discussions about articles you are invited to join SKYbrary as a registered user

 Actions

San Louis Obispo

From SKYbrary Wiki

KSBP
Airport
ICAO: KSBP
Summary
Name San Louis Obispo
Region North America
Territory United States US.gif
Location San Luis Obispo, California
Serving San Luis Obispo County
Coordinates 35° 14' 15.62" N, 120° 38' 27.85" W
Runways
Designator Length Width Surface ROPS
7/25 994 m3,261.155 ft <br /> 30 m98.425 ft <br /> ASP yes/yes
11/29 1615 m5,298.556 ft <br /> 46 m150.919 ft <br /> ASP yes/yes


METAR
Observation KSBP 211856Z VRB06KT 10SM OVC016 19/13 A3001 RMK AO2 SLP160 T01890128
Station San Luis Obispo, San Luis Obispo County-Mc Chesney Field
Date/Time 21 June 2021 18:56:00
Wind direction °
Wind speed 06 kts
Lowest cloud amount overcast
Temperature 18.9°C
Dew point 12.8°C
Humidity 67%
QNH hPa
Weather condition n/a

EMAS
Rwy(s) 11, 29

San Luis Obispo County Regional Airport

ICAO: KSBP IATA: SBP

Description

San Luis Obispo County Regional Airport (IATA: SBP), also known as McChesney Field, is an airport located in San Luis Obispo, California serving San Luis Obispo County.

Climatology

Dry-summer subtropical ”Mediterranean" climate (Köppen climate classification Csb) - characterized by warm, dry summers and mild winters.

Maps

Terrain

Loading map...

Airport Layout

Loading map...


Accidents & Serious Incidents at or in vicinity of KSBP

None on SKYbrary